Time;durP1;ratioP1;P1;durP2;ratioP2;P2;SDS_P1;SDS_P2;PMS_P1;PMS_P2;Temp;Humidity;BMP_temperature;BMP_pressure;BME280_temperature;BME280_humidity;BME280_pressure;Samples;Min_cycle;Max_cycle;Signal;HPM_P1;HPM_P2
2022/04/25 00:00:26;;;;;;;10.73;6.80;;;8.00;1.00;;;;;;5133972;27;20248;-85
2022/04/25 00:02:55;;;;;;;10.77;6.67;;;8.00;1.00;;;;;;5133222;27;20705;-86
2022/04/25 00:05:22;;;;;;;10.87;6.73;;;7.90;1.00;;;;;;5134025;27;20191;-85
2022/04/25 00:07:49;;;;;;;14.57;6.90;;;7.90;1.00;;;;;;5134091;27;20603;-85
2022/04/25 00:10:16;;;;;;;11.27;6.53;;;7.80;1.00;;;;;;5133601;27;20644;-85
2022/04/25 00:12:43;;;;;;;9.40;6.77;;;7.70;1.00;;;;;;5133912;27;20223;-85
2022/04/25 00:15:11;;;;;;;9.03;6.27;;;7.70;1.00;;;;;;5133927;27;20186;-85
2022/04/25 00:17:38;;;;;;;8.83;6.20;;;7.70;1.00;;;;;;5133766;27;20209;-85
2022/04/25 00:20:08;;;;;;;11.37;7.67;;;7.60;1.00;;;;;;5133483;27;20181;-85
2022/04/25 00:22:35;;;;;;;10.40;6.90;;;7.60;1.00;;;;;;5133581;27;20224;-85
2022/04/25 00:25:03;;;;;;;13.27;7.20;;;7.50;1.00;;;;;;5132814;27;20244;-84
2022/04/25 00:27:30;;;;;;;11.63;7.70;;;7.50;1.00;;;;;;5133489;27;20279;-85
2022/04/25 00:29:57;;;;;;;10.50;7.70;;;7.50;1.00;;;;;;5133605;27;20194;-85
2022/04/25 00:32:25;;;;;;;10.77;7.60;;;7.40;22.70;;;;;;5133642;27;20693;-85
2022/04/25 00:34:52;;;;;;;11.60;8.07;;;7.40;27.90;;;;;;5133299;27;20198;-85
2022/04/25 00:37:20;;;;;;;10.67;7.67;;;7.30;82.10;;;;;;5133219;27;20239;-85
2022/04/25 00:39:47;;;;;;;12.43;8.53;;;7.30;99.90;;;;;;5133193;27;20599;-85
2022/04/25 00:42:15;;;;;;;11.07;8.47;;;7.30;99.90;;;;;;5133412;27;20197;-84
2022/04/25 00:44:42;;;;;;;14.83;8.00;;;7.20;99.90;;;;;;5133368;27;20228;-85
2022/04/25 00:47:10;;;;;;;13.97;8.27;;;7.20;99.90;;;;;;5133275;27;20650;-85
2022/04/25 00:49:37;;;;;;;13.13;8.13;;;7.10;99.90;;;;;;5133329;27;20251;-84
2022/04/25 00:52:05;;;;;;;13.90;8.40;;;7.10;99.90;;;;;;5133242;27;20243;-86
2022/04/25 00:54:34;;;;;;;14.47;8.83;;;7.00;99.90;;;;;;5132975;27;20198;-85
2022/04/25 00:57:01;;;;;;;13.60;7.93;;;7.00;99.90;;;;;;5133118;27;20195;-85
2022/04/25 00:59:30;;;;;;;13.70;7.93;;;6.90;99.90;;;;;;5133014;27;20186;-85
2022/04/25 01:01:57;;;;;;;13.50;8.63;;;6.90;99.90;;;;;;5133253;28;20614;-85
2022/04/25 01:04:24;;;;;;;13.80;8.23;;;6.80;99.90;;;;;;5133167;28;20190;-85
2022/04/25 01:06:51;;;;;;;14.00;9.20;;;6.80;99.90;;;;;;5133210;28;20292;-86
2022/04/25 01:09:18;;;;;;;13.37;7.77;;;6.80;99.90;;;;;;5133157;27;20190;-86
2022/04/25 01:11:47;;;;;;;14.43;9.07;;;6.60;99.90;;;;;;5133205;27;20186;-85
2022/04/25 01:14:16;;;;;;;15.90;8.70;;;6.60;99.90;;;;;;5133111;28;20213;-85
2022/04/25 01:16:43;;;;;;;15.07;9.27;;;6.60;99.90;;;;;;5133108;27;20185;-85
2022/04/25 01:19:10;;;;;;;12.67;8.20;;;6.50;99.90;;;;;;5132604;27;20190;-85
2022/04/25 01:21:43;;;;;;;13.63;8.03;;;6.50;99.90;;;;;;5133414;27;20200;-86
2022/04/25 01:29:41;;;;;;;13.53;7.90;;;6.40;99.90;;;;;;5133342;28;20350;-85
2022/04/25 01:32:09;;;;;;;12.80;7.80;;;6.40;99.90;;;;;;5132801;27;20683;-85
2022/04/25 01:34:38;;;;;;;12.80;7.43;;;6.30;1.00;;;;;;5132358;27;20183;-85
2022/04/25 01:37:09;;;;;;;13.03;8.13;;;6.20;99.90;;;;;;5135931;27;20774;-84
2022/04/25 01:39:39;;;;;;;14.93;8.23;;;6.20;1.00;;;;;;5137092;27;20179;-85
2022/04/25 01:42:07;;;;;;;16.60;8.60;;;6.20;1.00;;;;;;5136727;27;20223;-86
2022/04/25 01:44:35;;;;;;;12.50;7.73;;;6.20;1.00;;;;;;5136466;27;20604;-85
2022/04/25 01:47:02;;;;;;;12.03;7.23;;;6.20;1.00;;;;;;5136531;27;20240;-85
2022/04/25 01:49:29;;;;;;;12.00;7.97;;;6.10;1.00;;;;;;5136767;27;20194;-86
2022/04/25 01:51:56;;;;;;;12.10;7.60;;;6.10;1.00;;;;;;5136660;27;20222;-85
2022/04/25 01:54:26;;;;;;;15.57;8.10;;;6.10;1.00;;;;;;5136621;27;20281;-85
2022/04/25 01:56:55;;;;;;;12.83;7.43;;;6.10;1.00;;;;;;5136686;27;20585;-85
2022/04/25 01:59:23;;;;;;;12.20;8.43;;;6.00;1.00;;;;;;5136591;27;20194;-86
2022/04/25 02:01:51;;;;;;;15.80;7.67;;;6.00;1.00;;;;;;5136498;27;20247;-86
2022/04/25 02:04:18;;;;;;;13.23;7.63;;;5.90;1.00;;;;;;5135902;27;20535;-85
2022/04/25 02:06:45;;;;;;;11.63;7.77;;;5.90;1.00;;;;;;5136200;27;20186;-86
2022/04/25 02:09:12;;;;;;;13.93;8.00;;;5.80;1.00;;;;;;5136758;27;20261;-85
2022/04/25 02:11:39;;;;;;;12.03;7.67;;;5.80;1.00;;;;;;5135947;27;20730;-86
2022/04/25 02:14:07;;;;;;;14.13;7.60;;;5.80;1.00;;;;;;5135820;27;20607;-86
2022/04/25 02:16:34;;;;;;;12.83;7.87;;;5.80;1.00;;;;;;5136215;27;20250;-85
2022/04/25 02:19:01;;;;;;;10.63;7.50;;;5.70;1.00;;;;;;5135793;27;20642;-85
2022/04/25 02:21:28;;;;;;;12.47;7.83;;;5.70;1.00;;;;;;5136163;27;20253;-86
2022/04/25 02:23:56;;;;;;;13.57;7.57;;;5.70;1.00;;;;;;5136130;27;20246;-86
2022/04/25 02:26:23;;;;;;;14.30;7.37;;;5.70;1.00;;;;;;5135712;27;20190;-86
2022/04/25 02:28:50;;;;;;;11.30;7.07;;;5.60;1.00;;;;;;5135967;27;20218;-86
2022/04/25 02:31:18;;;;;;;14.73;7.53;;;5.60;1.00;;;;;;5136014;27;20201;-85
2022/04/25 02:33:45;;;;;;;12.80;7.47;;;5.60;1.00;;;;;;5135845;27;20573;-86
2022/04/25 02:36:13;;;;;;;15.57;8.40;;;5.60;1.00;;;;;;5135761;27;20235;-86
2022/04/25 02:38:41;;;;;;;12.37;7.27;;;5.60;1.00;;;;;;5135524;27;20193;-86
2022/04/25 02:41:09;;;;;;;14.43;6.87;;;5.60;1.00;;;;;;5135832;27;20620;-86
2022/04/25 02:43:37;;;;;;;13.40;6.93;;;5.60;1.00;;;;;;5135292;27;20223;-85
2022/04/25 02:46:06;;;;;;;14.83;7.80;;;5.60;15.70;;;;;;5135692;27;20247;-85
2022/04/25 02:48:36;;;;;;;13.87;7.37;;;5.60;91.90;;;;;;5134308;27;20235;-86
2022/04/25 02:51:03;;;;;;;11.87;7.23;;;5.70;99.90;;;;;;5135613;27;20205;-86
2022/04/25 02:53:31;;;;;;;11.93;7.07;;;5.70;99.90;;;;;;5135085;27;20584;-86
2022/04/25 02:55:58;;;;;;;11.50;7.07;;;5.70;99.90;;;;;;5135145;27;20190;-86
2022/04/25 02:58:25;;;;;;;13.03;7.00;;;5.70;99.90;;;;;;5135533;27;20194;-86
2022/04/25 03:00:53;;;;;;;44.47;8.93;;;5.80;99.90;;;;;;5135328;27;20281;-86
2022/04/25 03:03:21;;;;;;;12.10;7.67;;;5.80;99.90;;;;;;5134772;27;20258;-85
2022/04/25 03:05:51;;;;;;;12.97;7.03;;;5.80;99.90;;;;;;5134999;27;20650;-85
2022/04/25 03:08:19;;;;;;;12.07;7.37;;;5.80;99.90;;;;;;5134908;27;20651;-86
2022/04/25 03:10:47;;;;;;;11.47;6.97;;;5.90;99.90;;;;;;5135255;27;20590;-86
2022/04/25 03:13:15;;;;;;;13.57;6.67;;;5.90;99.90;;;;;;5135015;27;20681;-85
2022/04/25 03:15:43;;;;;;;10.83;6.53;;;5.90;99.90;;;;;;5135369;27;20208;-86
2022/04/25 03:18:11;;;;;;;13.03;6.97;;;5.90;99.90;;;;;;5135078;27;20193;-86
2022/04/25 03:20:39;;;;;;;12.97;6.53;;;6.00;99.90;;;;;;5135060;27;20206;-86
2022/04/25 03:23:08;;;;;;;11.80;6.90;;;6.00;99.90;;;;;;5134995;27;20603;-85
2022/04/25 03:25:37;;;;;;;13.03;6.33;;;6.00;99.90;;;;;;5134742;27;20568;-86
2022/04/25 03:28:04;;;;;;;11.23;6.80;;;6.00;99.90;;;;;;5134588;27;20709;-85
2022/04/25 03:30:31;;;;;;;13.73;6.83;;;6.00;99.90;;;;;;5134929;27;20231;-87
2022/04/25 03:32:58;;;;;;;10.03;6.60;;;6.10;99.90;;;;;;5134129;27;20673;-86
2022/04/25 03:35:26;;;;;;;10.20;6.50;;;6.10;99.90;;;;;;5136497;27;20250;-85
2022/04/25 03:37:53;;;;;;;10.40;6.43;;;6.00;97.50;;;;;;5139021;27;20186;-86
2022/04/25 03:40:22;;;;;;;9.80;6.10;;;6.00;91.40;;;;;;5139223;27;20186;-87
2022/04/25 03:42:49;;;;;;;12.83;5.93;;;6.10;60.10;;;;;;5138980;27;20206;-86
2022/04/25 03:45:18;;;;;;;10.50;6.70;;;6.10;19.80;;;;;;5139275;27;20571;-86
2022/04/25 03:47:46;;;;;;;10.70;6.43;;;6.10;6.60;;;;;;5139494;27;20279;-86
2022/04/25 03:50:14;;;;;;;9.80;6.50;;;6.10;1.00;;;;;;5139085;27;20194;-84
2022/04/25 03:52:43;;;;;;;11.13;6.30;;;6.20;1.00;;;;;;5138625;27;20197;-86
2022/04/25 03:57:58;;;;;;;11.57;6.30;;;6.30;1.00;;;;;;5138878;27;20543;-87
2022/04/25 04:00:26;;;;;;;10.53;5.80;;;6.30;1.00;;;;;;5139366;27;20186;-87
2022/04/25 04:02:53;;;;;;;12.47;6.57;;;6.30;1.00;;;;;;5139139;27;20673;-87
2022/04/25 04:05:20;;;;;;;12.60;7.03;;;6.30;1.00;;;;;;5138788;27;20198;-87
2022/04/25 04:07:48;;;;;;;10.57;6.23;;;6.30;1.00;;;;;;5138288;27;20189;-85
2022/04/25 04:10:16;;;;;;;12.27;6.17;;;6.30;1.00;;;;;;5139077;27;20196;-86
2022/04/25 04:12:46;;;;;;;12.43;6.77;;;6.20;1.00;;;;;;5137674;27;20194;-86
2022/04/25 04:15:15;;;;;;;15.00;6.33;;;6.20;1.00;;;;;;5124267;27;20191;-86
2022/04/25 04:17:43;;;;;;;11.47;6.17;;;6.20;1.00;;;;;;5121955;27;20595;-86
2022/04/25 04:20:12;;;;;;;11.97;6.50;;;6.20;1.00;;;;;;5138811;27;20208;-85
2022/04/25 04:22:40;;;;;;;10.27;6.30;;;6.20;1.00;;;;;;5139895;27;20201;-85
2022/04/25 04:25:09;;;;;;;12.07;6.47;;;6.20;1.00;;;;;;5139466;27;20189;-86
2022/04/25 04:27:36;;;;;;;11.57;6.53;;;6.20;1.00;;;;;;5138961;27;20226;-86
2022/04/25 04:30:06;;;;;;;12.43;6.33;;;6.20;1.00;;;;;;5140002;27;20531;-88
2022/04/25 04:32:35;;;;;;;11.60;7.27;;;6.20;1.00;;;;;;5139143;27;20218;-85
2022/04/25 04:35:03;;;;;;;14.37;7.40;;;6.20;1.00;;;;;;5133007;27;20210;-86
2022/04/25 04:37:32;;;;;;;9.37;5.80;;;6.20;1.00;;;;;;5133557;27;20205;-86
2022/04/25 04:42:40;;;;;;;11.50;6.67;;;6.30;1.00;;;;;;5112448;28;20215;-86
2022/04/25 04:45:08;;;;;;;9.60;5.63;;;6.30;1.00;;;;;;5112478;28;20657;-86
2022/04/25 04:47:37;;;;;;;13.93;5.77;;;6.40;1.00;;;;;;5112907;28;20531;-86
2022/04/25 04:50:04;;;;;;;10.97;5.90;;;6.40;1.00;;;;;;5112473;28;20247;-86
2022/04/25 04:52:31;;;;;;;9.43;5.97;;;6.50;1.00;;;;;;5112826;28;20196;-85
2022/04/25 04:54:58;;;;;;;10.73;5.50;;;6.60;1.00;;;;;;5112539;28;20281;-86
2022/04/25 04:57:25;;;;;;;9.07;5.07;;;6.60;1.00;;;;;;5116300;28;20194;-86
2022/04/25 04:59:52;;;;;;;11.93;5.80;;;6.70;1.00;;;;;;5116904;28;20191;-88
2022/04/25 05:02:19;;;;;;;8.60;5.03;;;6.80;1.00;;;;;;5114209;28;20648;-86
2022/04/25 05:04:49;;;;;;;9.37;5.43;;;6.80;1.00;;;;;;5131576;28;20259;-86
2022/04/25 05:07:16;;;;;;;19.03;11.97;;;6.90;1.00;;;;;;5133184;27;20635;-87
2022/04/25 05:09:43;;;;;;;7.53;4.37;;;7.00;1.00;;;;;;5133285;27;20647;-86
2022/04/25 05:12:11;;;;;;;7.57;4.90;;;7.00;1.00;;;;;;5136695;27;20198;-87
2022/04/25 05:14:38;;;;;;;8.77;4.80;;;7.10;1.00;;;;;;5137556;27;20579;-88
2022/04/25 05:17:05;;;;;;;7.50;5.20;;;7.20;1.00;;;;;;5137594;27;20192;-88
2022/04/25 05:19:32;;;;;;;7.27;4.90;;;7.30;1.00;;;;;;5136959;27;20257;-88
2022/04/25 05:22:00;;;;;;;9.00;4.47;;;7.40;1.00;;;;;;5136458;27;20257;-89
2022/04/25 05:24:28;;;;;;;9.60;5.40;;;7.40;1.00;;;;;;5137503;27;20599;-87
2022/04/25 05:26:55;;;;;;;6.47;4.33;;;7.50;1.00;;;;;;5137583;27;20188;-88
2022/04/25 05:29:22;;;;;;;9.30;5.00;;;7.60;99.90;;;;;;5137632;27;20283;-87
2022/04/25 05:31:50;;;;;;;9.53;5.23;;;7.60;99.90;;;;;;5137590;27;20196;-87
2022/04/25 05:34:18;;;;;;;10.73;5.20;;;7.70;99.90;;;;;;5137020;27;20213;-88
2022/04/25 05:36:45;;;;;;;7.57;5.10;;;7.70;99.90;;;;;;5137057;27;20200;-88
2022/04/25 05:39:14;;;;;;;8.20;5.20;;;7.80;99.90;;;;;;5136506;27;20196;-87
2022/04/25 05:41:42;;;;;;;8.03;5.03;;;7.80;99.90;;;;;;5136758;27;20185;-89
2022/04/25 05:44:10;;;;;;;11.83;5.20;;;7.90;99.90;;;;;;5136864;27;20192;-88
2022/04/25 05:46:37;;;;;;;8.67;5.20;;;7.90;99.90;;;;;;5137254;27;20275;-88
2022/04/25 05:52:02;;;;;;;7.60;5.17;;;7.90;99.90;;;;;;5136688;27;20546;-86
2022/04/25 05:54:32;;;;;;;8.63;4.97;;;7.90;99.90;;;;;;5136353;27;20208;-88
2022/04/25 05:56:59;;;;;;;8.67;4.70;;;7.90;99.90;;;;;;5136503;27;20195;-87
2022/04/25 05:59:29;;;;;;;9.27;4.50;;;7.90;99.90;;;;;;5136690;27;20272;-88
2022/04/25 06:01:56;;;;;;;7.80;4.33;;;7.90;99.90;;;;;;5136452;27;20188;-86
2022/04/25 06:04:23;;;;;;;7.47;4.40;;;8.00;99.90;;;;;;5136415;27;20196;-87
2022/04/25 06:06:50;;;;;;;6.07;3.80;;;8.10;91.10;;;;;;5136750;27;20200;-89
2022/04/25 06:09:19;;;;;;;7.53;4.53;;;8.20;95.70;;;;;;5136644;27;20192;-87
2022/04/25 06:11:49;;;;;;;9.80;4.40;;;8.30;49.70;;;;;;5136410;27;20668;-88
2022/04/25 06:14:16;;;;;;;9.87;4.63;;;8.40;46.90;;;;;;5136447;27;20270;-87
2022/04/25 06:16:43;;;;;;;7.67;4.07;;;8.60;6.60;;;;;;5136324;27;20417;-86
2022/04/25 06:19:11;;;;;;;8.03;3.83;;;8.80;1.00;;;;;;5136667;27;20197;-87
2022/04/25 06:21:38;;;;;;;5.57;4.03;;;8.90;1.00;;;;;;5136926;27;20189;-87
2022/04/25 06:24:06;;;;;;;6.13;4.27;;;9.10;1.00;;;;;;5136134;27;20203;-88
2022/04/25 06:26:34;;;;;;;10.33;4.80;;;9.20;1.00;;;;;;5136042;27;20244;-87
2022/04/25 06:29:03;;;;;;;7.10;4.40;;;9.30;1.00;;;;;;5135843;27;20232;-87
2022/04/25 06:31:30;;;;;;;7.43;4.10;;;9.50;1.00;;;;;;5136223;27;20199;-87
2022/04/25 06:33:58;;;;;;;10.43;4.67;;;9.70;1.00;;;;;;5135972;27;20213;-88
2022/04/25 06:36:25;;;;;;;7.37;4.63;;;9.90;1.00;;;;;;5136037;27;20232;-87
2022/04/25 06:38:52;;;;;;;6.03;4.10;;;10.10;1.00;;;;;;5136267;27;20241;-87
2022/04/25 06:41:21;;;;;;;7.20;4.20;;;10.20;1.00;;;;;;5135951;27;20727;-86
2022/04/25 06:43:48;;;;;;;12.10;5.03;;;10.10;99.90;;;;;;5135745;27;20201;-87
2022/04/25 06:46:16;;;;;;;9.13;4.53;;;10.00;99.90;;;;;;5135839;27;20244;-88
2022/04/25 06:49:19;;;;;;;7.60;4.40;;;9.80;99.90;;;;;;5135739;27;20201;-87
2022/04/25 06:51:31;;;;;;;7.90;4.37;;;9.70;99.90;;;;;;5135076;27;20183;-88
2022/04/25 06:54:00;;;;;;;6.13;4.20;;;9.70;99.90;;;;;;5135587;27;20306;-88
2022/04/25 06:56:27;;;;;;;9.53;4.57;;;9.60;1.00;;;;;;5135779;27;20227;-88
2022/04/25 06:58:54;;;;;;;6.97;4.10;;;9.50;1.00;;;;;;5135477;27;20718;-87
2022/04/25 07:01:22;;;;;;;7.97;4.70;;;9.60;1.00;;;;;;5135960;27;20202;-87
2022/04/25 07:03:49;;;;;;;7.17;4.13;;;9.60;1.00;;;;;;5135891;27;20193;-87
2022/04/25 07:06:16;;;;;;;9.77;4.43;;;9.60;1.00;;;;;;5135026;27;20191;-87
2022/04/25 07:08:43;;;;;;;7.97;3.87;;;9.70;1.00;;;;;;5135431;27;20188;-88
2022/04/25 07:11:12;;;;;;;5.60;3.80;;;9.70;1.00;;;;;;5135553;27;20201;-87
2022/04/25 07:13:42;;;;;;;7.80;4.50;;;9.80;1.00;;;;;;5135312;27;20195;-87
2022/04/25 07:16:10;;;;;;;6.53;4.00;;;9.90;1.00;;;;;;5135297;27;20278;-87
2022/04/25 07:18:38;;;;;;;7.80;4.20;;;10.00;99.90;;;;;;5135299;27;20201;-88
2022/04/25 07:28:48;;;;;;;6.20;4.20;;;10.00;99.90;;;;;;5134575;27;20679;-88
2022/04/25 07:29:22;;;;;;;6.33;4.20;;;10.10;99.90;;;;;;5135082;27;20658;-88
2022/04/25 07:31:51;;;;;;;8.70;4.03;;;10.10;99.90;;;;;;5134905;27;20194;-90
2022/04/25 07:34:21;;;;;;;4.97;3.87;;;10.00;99.90;;;;;;5133873;27;20309;-87
2022/04/25 07:36:51;;;;;;;8.23;4.80;;;10.00;99.90;;;;;;5134686;27;20589;-88
2022/04/25 07:39:19;;;;;;;7.27;4.10;;;10.10;99.90;;;;;;5134453;27;20194;-87
2022/04/25 07:41:46;;;;;;;9.40;4.43;;;10.10;99.90;;;;;;5134467;27;20292;-89
2022/04/25 07:44:14;;;;;;;7.67;4.77;;;10.10;99.90;;;;;;5134704;27;20196;-88
2022/04/25 07:46:41;;;;;;;8.40;5.10;;;10.20;99.90;;;;;;5134390;27;20649;-86
2022/04/25 07:49:09;;;;;;;6.83;5.00;;;10.20;99.90;;;;;;5133955;27;20661;-88
2022/04/25 07:51:40;;;;;;;6.37;4.77;;;10.20;99.90;;;;;;5134279;27;20221;-87
2022/04/25 07:54:08;;;;;;;6.53;4.17;;;10.20;99.90;;;;;;5133877;27;20176;-88
2022/04/25 07:56:36;;;;;;;7.33;4.20;;;10.20;99.90;;;;;;5134310;27;20280;-88
2022/04/25 07:59:03;;;;;;;5.73;4.20;;;10.10;99.90;;;;;;5134149;27;20199;-88
2022/04/25 08:01:31;;;;;;;7.93;5.10;;;10.10;99.90;;;;;;5134422;27;20234;-88
2022/04/25 08:03:58;;;;;;;9.00;4.80;;;10.00;99.90;;;;;;5134265;27;20193;-86
2022/04/25 08:06:25;;;;;;;5.37;4.30;;;10.10;99.90;;;;;;5134343;27;20183;-87
2022/04/25 08:08:55;;;;;;;5.97;4.60;;;10.10;99.90;;;;;;5134446;27;20261;-88
2022/04/25 08:11:22;;;;;;;36.67;18.43;;;10.10;99.90;;;;;;5134693;27;20209;-86
2022/04/25 08:19:20;;;;;;;9.50;4.70;;;10.50;99.90;;;;;;5133536;27;20182;-88
2022/04/25 08:21:48;;;;;;;7.80;4.40;;;10.60;99.90;;;;;;5134034;27;20199;-87
2022/04/25 08:24:17;;;;;;;7.50;4.97;;;10.60;99.90;;;;;;5134034;27;20245;-87
2022/04/25 08:26:44;;;;;;;8.40;5.00;;;10.70;99.90;;;;;;5133477;27;20672;-90
2022/04/25 08:29:12;;;;;;;7.53;4.00;;;10.70;99.90;;;;;;5133778;27;20230;-88
2022/04/25 08:31:39;;;;;;;6.93;3.90;;;10.80;99.90;;;;;;5133595;27;20198;-87
2022/04/25 08:34:07;;;;;;;7.03;4.37;;;10.90;99.90;;;;;;5133403;27;20189;-87
2022/04/25 08:36:34;;;;;;;6.73;4.13;;;10.90;99.90;;;;;;5133273;27;20189;-86
2022/04/25 08:39:03;;;;;;;7.40;4.60;;;11.10;99.90;;;;;;5133674;27;20249;-89
2022/04/25 08:41:38;;;;;;;5.37;3.20;;;11.20;99.90;;;;;;5133245;27;20223;-88
2022/04/25 08:44:06;;;;;;;5.93;3.53;;;11.20;99.90;;;;;;5133328;27;20208;-87
2022/04/25 08:46:36;;;;;;;5.67;3.90;;;11.30;99.90;;;;;;5132520;27;20195;-90
2022/04/25 08:49:04;;;;;;;8.37;4.27;;;11.40;99.90;;;;;;5133158;27;20193;-87
2022/04/25 08:51:37;;;;;;;7.17;4.57;;;11.40;99.90;;;;;;5133213;27;20183;-88
2022/04/25 08:54:06;;;;;;;6.10;4.67;;;11.50;99.90;;;;;;5133519;27;20269;-87
2022/04/25 08:56:35;;;;;;;5.83;4.30;;;11.40;99.90;;;;;;5132942;27;20714;-88
2022/04/25 08:59:05;;;;;;;6.27;5.13;;;11.50;99.90;;;;;;5133361;27;20705;-87
2022/04/25 09:01:33;;;;;;;8.03;5.20;;;11.70;99.90;;;;;;5133095;27;20221;-87
2022/04/25 09:04:00;;;;;;;9.53;4.90;;;11.90;99.90;;;;;;5133056;27;20629;-88
2022/04/25 09:06:27;;;;;;;6.27;4.70;;;12.00;99.90;;;;;;5133627;28;20253;-87
2022/04/25 09:08:55;;;;;;;5.67;4.20;;;12.30;99.90;;;;;;5133584;28;20204;-88
2022/04/25 09:14:11;;;;;;;6.47;3.93;;;12.60;99.90;;;;;;5133215;28;20215;-88
2022/04/25 09:16:38;;;;;;;10.27;4.80;;;12.80;99.90;;;;;;5132966;28;20705;-88
2022/04/25 09:19:05;;;;;;;5.00;4.10;;;13.00;55.40;;;;;;5132705;28;20199;-85
2022/04/25 09:21:39;;;;;;;6.03;4.20;;;13.10;1.00;;;;;;5132381;28;20548;-86
2022/04/25 09:24:21;;;;;;;5.93;4.67;;;13.20;1.00;;;;;;5133200;27;20175;-86
2022/04/25 09:26:48;;;;;;;6.00;4.40;;;13.30;1.00;;;;;;5132766;28;20270;-87
2022/04/25 09:29:26;;;;;;;8.43;5.20;;;13.40;1.00;;;;;;5132651;28;20233;-86
2022/04/25 09:31:53;;;;;;;8.33;4.40;;;13.40;1.00;;;;;;5133103;27;20579;-87
2022/04/25 09:34:59;;;;;;;8.93;5.30;;;13.50;1.00;;;;;;5133101;27;20200;-88
2022/04/25 09:37:08;;;;;;;8.90;4.60;;;13.40;1.00;;;;;;5132470;28;20189;-86
2022/04/25 09:39:36;;;;;;;7.80;4.80;;;13.30;1.00;;;;;;5132721;27;20724;-87
2022/04/25 09:42:03;;;;;;;10.27;4.80;;;13.40;1.00;;;;;;5132647;27;20198;-88
2022/04/25 09:44:56;;;;;;;8.27;5.40;;;13.30;1.00;;;;;;5132914;27;20251;-87
2022/04/25 09:47:30;;;;;;;9.90;4.90;;;13.50;1.00;;;;;;5132972;27;20520;-87
2022/04/25 09:50:02;;;;;;;11.10;5.17;;;13.80;1.00;;;;;;5133354;27;20179;-88
2022/04/25 09:52:29;;;;;;;8.63;4.73;;;14.20;1.00;;;;;;5133147;27;20181;-89
2022/04/25 09:54:58;;;;;;;10.43;6.20;;;14.50;1.00;;;;;;5132893;27;20271;-88
2022/04/25 09:57:31;;;;;;;9.60;4.37;;;14.90;1.00;;;;;;5134377;27;20270;-87
2022/04/25 10:00:00;;;;;;;5.55;4.60;;;15.30;1.00;;;;;;5136999;27;20250;-88
2022/04/25 10:02:28;;;;;;;5.55;4.60;;;15.60;1.00;;;;;;5136899;27;20197;-89
2022/04/25 10:04:55;;;;;;;8.25;4.55;;;15.80;1.00;;;;;;5136618;27;20230;-86
2022/04/25 10:07:23;;;;;;;10.90;5.88;;;16.00;1.00;;;;;;5136589;27;20252;-88
2022/04/25 10:09:53;;;;;;;16.80;9.48;;;16.10;1.00;;;;;;5136565;27;20478;-87
2022/04/25 10:12:21;;;;;;;7.88;4.50;;;16.20;1.00;;;;;;5136586;27;20214;-87
2022/04/25 10:14:49;;;;;;;7.55;4.50;;;16.40;1.00;;;;;;5136317;27;20714;-86
2022/04/25 10:17:18;;;;;;;8.50;4.40;;;16.40;1.00;;;;;;5135697;27;20269;-88
2022/04/25 10:19:46;;;;;;;6.28;3.80;;;16.20;1.00;;;;;;5136242;27;20246;-87
2022/04/25 10:22:15;;;;;;;7.18;3.95;;;16.30;1.00;;;;;;5136236;27;20618;-86
2022/04/25 10:24:43;;;;;;;6.85;3.80;;;16.40;1.00;;;;;;5135997;27;20611;-87
2022/04/25 10:27:14;;;;;;;6.80;3.75;;;16.50;1.00;;;;;;5135949;27;20201;-88
2022/04/25 10:29:47;;;;;;;7.38;4.03;;;16.50;1.00;;;;;;5136337;27;20214;-87
2022/04/25 10:32:17;;;;;;;7.07;3.80;;;16.30;1.00;;;;;;5135853;27;20180;-87
2022/04/25 10:34:51;;;;;;;8.27;4.00;;;16.20;1.00;;;;;;5135922;27;20192;-88
2022/04/25 10:37:32;;;;;;;5.22;3.50;;;16.00;1.00;;;;;;5135465;27;20210;-88
2022/04/25 10:40:00;;;;;;;6.68;3.65;;;15.80;1.00;;;;;;5135892;27;20591;-88
2022/04/25 10:45:12;;;;;;;6.65;4.50;;;15.80;1.00;;;;;;5135250;27;20553;-89
2022/04/25 10:47:57;;;;;;;5.47;3.90;;;15.70;1.00;;;;;;5135705;27;20255;-87
2022/04/25 10:50:26;;;;;;;5.45;3.97;;;15.60;1.00;;;;;;5135580;27;20193;-87
2022/04/25 10:52:56;;;;;;;5.90;4.50;;;15.60;1.00;;;;;;5135800;27;20632;-86
2022/04/25 10:55:45;;;;;;;8.00;4.25;;;15.50;1.00;;;;;;5135518;27;20292;-88
2022/04/25 10:58:22;;;;;;;5.47;3.65;;;15.40;1.00;;;;;;5136135;27;20199;-88
2022/04/25 11:00:56;;;;;;;6.27;3.70;;;15.50;1.00;;;;;;5135890;27;20197;-88
2022/04/25 11:03:31;;;;;;;6.43;4.00;;;15.50;1.00;;;;;;5135155;27;20194;-87
2022/04/25 11:06:02;;;;;;;4.80;3.97;;;15.50;1.00;;;;;;5135438;27;20181;-87
2022/04/25 11:08:31;;;;;;;6.50;3.83;;;15.50;1.00;;;;;;5134189;27;20183;-88
2022/04/25 11:11:16;;;;;;;6.10;3.90;;;15.60;1.00;;;;;;5135439;27;20240;-88
2022/04/25 11:14:12;;;;;;;5.35;3.88;;;15.60;1.00;;;;;;5135113;27;20181;-86
2022/04/25 11:16:39;;;;;;;6.40;4.13;;;15.50;1.00;;;;;;5135190;27;20302;-87
2022/04/25 11:19:08;;;;;;;6.03;3.87;;;15.50;1.00;;;;;;5135213;27;20583;-88
2022/04/25 11:21:42;;;;;;;5.43;3.97;;;15.50;1.00;;;;;;5135337;27;20189;-88
2022/04/25 11:24:28;;;;;;;5.30;3.93;;;15.50;1.00;;;;;;5135387;27;20190;-86
2022/04/25 11:26:56;;;;;;;7.07;3.97;;;15.40;1.00;;;;;;5134766;27;20188;-87
2022/04/25 11:29:23;;;;;;;7.30;4.30;;;15.30;1.00;;;;;;5134900;27;20229;-87
2022/04/25 11:31:50;;;;;;;6.25;4.20;;;15.20;1.00;;;;;;5134911;27;20608;-87
2022/04/25 11:34:22;;;;;;;6.03;3.97;;;15.20;1.00;;;;;;5134782;27;20199;-86
2022/04/25 11:36:50;;;;;;;8.93;4.90;;;15.10;1.00;;;;;;5134621;27;20201;-87
2022/04/25 11:42:06;;;;;;;5.57;3.90;;;15.10;1.00;;;;;;5134832;27;20641;-88
2022/04/25 11:44:38;;;;;;;6.07;3.93;;;15.20;1.00;;;;;;5135568;27;20229;-87
2022/04/25 11:47:06;;;;;;;6.23;3.87;;;15.30;1.00;;;;;;5134688;27;20196;-87
2022/04/25 11:49:37;;;;;;;8.17;4.60;;;15.20;1.00;;;;;;5134358;27;20577;-87
2022/04/25 11:52:06;;;;;;;5.82;4.47;;;15.10;1.00;;;;;;5134901;27;20178;-86
2022/04/25 11:54:34;;;;;;;4.97;3.57;;;15.20;1.00;;;;;;5134295;27;20738;-87
2022/04/25 11:57:02;;;;;;;7.13;4.63;;;15.20;1.00;;;;;;5134040;27;20213;-88
2022/04/25 11:59:30;;;;;;;11.60;7.47;;;15.20;1.00;;;;;;5134116;27;20246;-87
2022/04/25 12:01:57;;;;;;;7.33;4.77;;;15.30;1.00;;;;;;5133905;27;20250;-87
2022/04/25 12:04:25;;;;;;;9.13;5.20;;;15.30;1.00;;;;;;5133901;27;20196;-88
2022/04/25 12:06:55;;;;;;;6.60;4.80;;;15.50;1.00;;;;;;5134320;27;20287;-87
2022/04/25 12:17:42;;;;;;;6.70;4.50;;;15.60;1.00;;;;;;5133604;27;20556;-88
2022/04/25 12:20:12;;;;;;;6.00;4.50;;;15.60;1.00;;;;;;5133938;27;20193;-88
2022/04/25 12:22:40;;;;;;;9.67;5.30;;;15.70;1.00;;;;;;5133703;27;20196;-89
2022/04/25 12:25:16;;;;;;;11.50;4.60;;;15.80;1.00;;;;;;5133943;27;20340;-87
2022/04/25 12:28:03;;;;;;;5.47;4.28;;;16.00;1.00;;;;;;5133423;27;20632;-87
2022/04/25 12:30:32;;;;;;;5.40;4.28;;;16.00;1.00;;;;;;5133768;27;20201;-88
2022/04/25 12:33:09;;;;;;;9.98;4.53;;;16.10;1.00;;;;;;5132855;27;20202;-86
2022/04/25 12:35:37;;;;;;;6.68;4.65;;;16.20;1.00;;;;;;5133780;27;20227;-86
2022/04/25 12:38:04;;;;;;;5.93;4.13;;;16.30;1.00;;;;;;5133874;27;20199;-86
2022/04/25 12:40:33;;;;;;;8.27;4.72;;;16.30;1.00;;;;;;5133539;27;20290;-86
2022/04/25 12:43:00;;;;;;;6.88;4.57;;;16.10;1.00;;;;;;5133584;27;20197;-87
2022/04/25 12:45:28;;;;;;;9.70;5.45;;;16.00;1.00;;;;;;5133181;27;20288;-85
2022/04/25 12:47:56;;;;;;;5.97;4.28;;;16.10;1.00;;;;;;5133560;27;20193;-86
2022/04/25 12:50:43;;;;;;;5.53;3.95;;;16.10;1.00;;;;;;5133588;27;20287;-88
2022/04/25 12:53:11;;;;;;;8.25;4.28;;;16.00;1.00;;;;;;5133491;27;20178;-86
2022/04/25 12:55:50;;;;;;;7.15;4.10;;;16.00;1.00;;;;;;5121281;27;20255;-86
2022/04/25 12:58:17;;;;;;;5.13;3.92;;;16.20;1.00;;;;;;5112623;28;20186;-86
2022/04/25 13:00:45;;;;;;;5.97;4.00;;;16.20;1.00;;;;;;5111964;27;20193;-86
2022/04/25 13:03:13;;;;;;;7.05;4.57;;;16.10;1.00;;;;;;5111704;28;20189;-85
2022/04/25 13:05:41;;;;;;;5.53;4.30;;;15.80;1.00;;;;;;5112299;28;20223;-86
2022/04/25 13:08:08;;;;;;;8.27;4.38;;;15.80;1.00;;;;;;5112870;28;20617;-86
2022/04/25 13:10:35;;;;;;;5.38;4.07;;;15.80;1.00;;;;;;5112959;28;20267;-86
2022/04/25 13:13:03;;;;;;;7.93;4.53;;;15.80;1.00;;;;;;5114015;28;20188;-85
2022/04/25 13:15:30;;;;;;;6.73;4.10;;;15.80;1.00;;;;;;5111634;28;20186;-85
2022/04/25 13:17:58;;;;;;;7.50;4.53;;;15.70;1.00;;;;;;5111007;28;20195;-85
2022/04/25 13:20:28;;;;;;;6.97;4.15;;;15.50;1.00;;;;;;5111359;28;20192;-85
2022/04/25 13:22:56;;;;;;;7.80;4.47;;;15.50;1.00;;;;;;5111473;28;20249;-85
2022/04/25 13:25:23;;;;;;;5.95;4.50;;;15.50;1.00;;;;;;5130783;28;20666;-85
2022/04/25 13:27:51;;;;;;;5.25;3.63;;;15.60;1.00;;;;;;5124426;27;20209;-86
2022/04/25 13:30:20;;;;;;;6.87;3.90;;;15.60;1.00;;;;;;5112513;28;20185;-86
2022/04/25 13:32:48;;;;;;;10.87;5.10;;;15.50;1.00;;;;;;5121401;27;20566;-83
2022/04/25 13:35:16;;;;;;;6.23;4.20;;;15.50;1.00;;;;;;5116399;27;20279;-84
2022/04/25 13:37:43;;;;;;;7.93;5.10;;;15.50;1.00;;;;;;5119362;27;20224;-85
2022/04/25 13:40:11;;;;;;;7.90;3.87;;;15.60;1.00;;;;;;5120329;27;20198;-85
2022/04/25 13:42:40;;;;;;;7.97;4.30;;;15.60;1.00;;;;;;5136563;27;20191;-86
2022/04/25 13:45:08;;;;;;;6.23;4.03;;;15.60;1.00;;;;;;5135997;27;20202;-85